createdAt,value
2019-01-03T00:01:21.093Z,90.30
2019-01-03T00:03:51.273Z,90.10
2019-01-03T00:06:37.665Z,90.00
2019-01-03T00:09:07.858Z,89.50
2019-01-03T00:11:54.368Z,89.70
2019-01-03T00:14:27.289Z,89.20
2019-01-03T00:17:00.327Z,88.90
2019-01-03T00:19:42.124Z,88.70
2019-01-03T00:22:28.655Z,89.20
2019-01-03T00:25:15.162Z,88.50
2019-01-03T00:27:48.058Z,88.40
2019-01-03T00:30:34.244Z,88.70
2019-01-03T00:33:16.375Z,88.80
2019-01-03T00:35:53.236Z,89.40
2019-01-03T00:38:35.188Z,89.60
2019-01-03T00:41:05.154Z,89.90
2019-01-03T00:43:35.129Z,89.40
2019-01-03T00:46:07.936Z,89.80
2019-01-03T00:48:54.470Z,90.00
2019-01-03T00:51:27.118Z,90.10
2019-01-03T00:54:13.764Z,90.50
2019-01-03T00:57:01.978Z,90.60
2019-01-03T00:59:40.867Z,90.40
2019-01-03T01:02:10.893Z,90.50
2019-01-03T01:04:41.113Z,90.50
2019-01-03T01:07:11.113Z,90.60
2019-01-03T01:09:50.005Z,90.50
2019-01-03T01:12:36.511Z,91.10
2019-01-03T01:15:22.730Z,90.50
2019-01-03T01:17:56.168Z,90.70
2019-01-03T01:20:30.246Z,90.80
2019-01-03T01:23:16.861Z,90.50
2019-01-03T01:25:52.835Z,90.30
2019-01-03T01:28:25.699Z,90.20
2019-01-03T01:31:13.837Z,90.20
2019-01-03T01:34:00.467Z,90.10
2019-01-03T01:36:33.390Z,90.30
2019-01-03T01:39:21.381Z,90.20
2019-01-03T01:41:51.309Z,90.50
2019-01-03T01:44:37.599Z,90.50
2019-01-03T01:47:19.494Z,90.50
2019-01-03T01:50:05.784Z,91.00
2019-01-03T01:52:38.642Z,90.70
2019-01-03T01:55:26.805Z,90.50
2019-01-03T01:58:15.286Z,90.30
2019-01-03T02:01:00.448Z,90.30
2019-01-03T02:03:42.816Z,90.40
2019-01-03T02:06:15.495Z,90.90
2019-01-03T02:09:02.126Z,90.50
2019-01-03T02:11:48.595Z,91.00
2019-01-03T02:14:30.655Z,90.20
2019-01-03T02:17:03.342Z,90.00
2019-01-03T02:19:33.517Z,90.00
2019-01-03T02:22:06.119Z,90.60
2019-01-03T02:24:52.505Z,90.20
2019-01-03T02:27:22.652Z,90.20
2019-01-03T02:29:55.077Z,90.20
2019-01-03T02:32:25.118Z,90.20
2019-01-03T02:37:40.628Z,90.50
2019-01-03T02:40:22.227Z,90.50
2019-01-03T02:43:01.199Z,90.70
2019-01-03T02:45:36.858Z,90.80
2019-01-03T02:48:06.877Z,90.50
2019-01-03T02:50:53.525Z,90.60
2019-01-03T02:53:26.888Z,90.70
2019-01-03T02:56:09.258Z,90.70
2019-01-03T02:58:55.523Z,91.30
2019-01-03T03:01:41.843Z,91.00
2019-01-03T03:04:28.301Z,91.30
2019-01-03T03:07:14.981Z,91.10
2019-01-03T03:09:51.106Z,91.20
2019-01-03T03:12:24.637Z,91.30
2019-01-03T03:14:57.731Z,91.40
2019-01-03T03:17:33.338Z,91.40
2019-01-03T03:20:09.247Z,91.10
2019-01-03T03:22:56.839Z,91.00
2019-01-03T03:25:45.491Z,91.00
2019-01-03T03:28:21.527Z,91.20
2019-01-03T03:31:09.376Z,91.30
2019-01-03T03:33:39.558Z,91.20
2019-01-03T03:36:21.333Z,91.50
2019-01-03T03:39:08.464Z,91.70
2019-01-03T03:41:53.685Z,91.80
2019-01-03T03:44:29.745Z,91.80
2019-01-03T03:47:11.832Z,92.10
2019-01-03T03:49:57.794Z,92.00
2019-01-03T03:52:30.567Z,91.90
2019-01-03T03:55:06.532Z,91.50
2019-01-03T03:57:51.803Z,91.20
2019-01-03T04:00:22.110Z,91.50
2019-01-03T04:03:08.282Z,91.50
2019-01-03T04:05:56.594Z,91.50
2019-01-03T04:08:32.372Z,91.60
2019-01-03T04:11:20.919Z,91.70
2019-01-03T04:14:06.342Z,91.60
2019-01-03T04:16:36.557Z,91.60
2019-01-03T04:19:09.583Z,91.50
2019-01-03T04:21:48.844Z,91.50
2019-01-03T04:24:35.429Z,91.50
2019-01-03T04:27:05.523Z,91.60
2019-01-03T04:29:44.488Z,91.70
2019-01-03T04:32:26.349Z,92.10
2019-01-03T04:34:56.547Z,91.70
2019-01-03T04:37:26.656Z,91.50
2019-01-03T04:39:56.610Z,91.20
2019-01-03T04:42:44.666Z,91.40
2019-01-03T04:45:20.521Z,91.80
2019-01-03T04:48:06.684Z,91.50
2019-01-03T04:50:36.793Z,91.50
2019-01-03T04:53:16.053Z,91.50
2019-01-03T04:55:55.446Z,91.40
2019-01-03T04:58:34.701Z,91.50
2019-01-03T05:01:42.834Z,92.10
2019-01-03T05:04:13.426Z,92.30
2019-01-03T05:06:46.527Z,91.80
2019-01-03T05:09:18.932Z,92.10
2019-01-03T05:11:48.919Z,91.80
2019-01-03T05:14:21.706Z,91.60
2019-01-03T05:17:07.800Z,91.40
2019-01-03T05:19:43.423Z,91.40
2019-01-03T05:22:25.431Z,91.40
2019-01-03T05:25:11.885Z,91.60
2019-01-03T05:27:44.744Z,91.60
2019-01-03T05:30:18.438Z,92.00
2019-01-03T05:32:46.683Z,92.10
2019-01-03T05:35:34.933Z,91.90
2019-01-03T05:38:21.221Z,91.90
2019-01-03T05:40:54.424Z,92.00
2019-01-03T05:43:36.574Z,91.80
2019-01-03T05:46:22.946Z,91.70
2019-01-03T05:49:01.758Z,91.90
2019-01-03T05:51:37.946Z,91.90
2019-01-03T05:54:10.749Z,91.80
2019-01-03T05:56:43.595Z,91.80
2019-01-03T05:59:22.427Z,91.90
2019-01-03T06:01:58.676Z,92.10
2019-01-03T06:04:34.957Z,92.30
2019-01-03T06:07:14.057Z,92.40
2019-01-03T06:10:00.506Z,92.20
2019-01-03T06:12:33.472Z,92.30
2019-01-03T06:15:06.464Z,92.20
2019-01-03T06:17:36.563Z,92.20
2019-01-03T06:20:19.387Z,92.40
2019-01-03T06:23:07.814Z,92.30
2019-01-03T06:25:40.815Z,92.20
2019-01-03T06:28:13.958Z,92.60
2019-01-03T06:30:43.928Z,92.20
2019-01-03T06:33:30.268Z,92.40
2019-01-03T06:36:03.002Z,92.40
2019-01-03T06:38:49.559Z,92.30
2019-01-03T06:41:31.349Z,92.30
2019-01-03T06:44:16.693Z,92.20
2019-01-03T06:46:58.573Z,92.30
2019-01-03T06:49:31.395Z,92.40
2019-01-03T06:52:04.175Z,92.30
2019-01-03T06:54:46.043Z,92.20
2019-01-03T06:57:16.194Z,92.20
2019-01-03T07:00:01.421Z,92.30
2019-01-03T07:02:40.509Z,92.20
2019-01-03T07:05:26.759Z,92.20
2019-01-03T07:08:05.793Z,92.10
2019-01-03T07:10:51.002Z,92.10
2019-01-03T07:13:37.078Z,91.60
2019-01-03T07:16:23.218Z,91.50
2019-01-03T07:18:59.937Z,91.90
2019-01-03T07:21:35.783Z,92.20
2019-01-03T07:24:11.745Z,92.30
2019-01-03T07:26:59.920Z,92.70
2019-01-03T07:29:29.941Z,92.10
2019-01-03T07:32:18.549Z,92.20
2019-01-03T07:34:54.618Z,92.10
2019-01-03T07:37:36.629Z,92.10
2019-01-03T07:40:24.983Z,92.30
2019-01-03T07:43:11.243Z,92.20
2019-01-03T07:45:44.475Z,91.90
2019-01-03T07:48:14.470Z,91.90
2019-01-03T07:50:47.515Z,91.80
2019-01-03T07:53:34.363Z,91.80
2019-01-03T07:56:16.114Z,92.00
2019-01-03T07:58:48.532Z,92.10
2019-01-03T08:01:30.590Z,91.90
2019-01-03T08:04:06.631Z,91.80
2019-01-03T08:06:36.614Z,91.90
2019-01-03T08:09:16.754Z,91.50
2019-01-03T08:12:03.527Z,91.40
2019-01-03T08:14:48.905Z,91.60
2019-01-03T08:17:35.125Z,91.40
2019-01-03T08:20:14.107Z,91.10
2019-01-03T08:22:49.610Z,91.10
2019-01-03T08:25:31.843Z,91.10
2019-01-03T08:28:18.524Z,91.00
2019-01-03T08:30:48.446Z,90.60
2019-01-03T08:33:33.124Z,90.20
2019-01-03T08:36:12.485Z,90.90
2019-01-03T08:38:51.658Z,90.20
2019-01-03T08:41:36.910Z,90.40
2019-01-03T08:44:21.960Z,90.50
2019-01-03T08:46:52.031Z,90.10
2019-01-03T08:49:22.034Z,89.50
2019-01-03T08:52:08.263Z,88.30
2019-01-03T08:54:40.747Z,88.10
2019-01-03T08:57:16.963Z,88.40
2019-01-03T08:59:49.785Z,88.30
2019-01-03T09:02:36.186Z,89.00
2019-01-03T09:05:06.313Z,89.80
2019-01-03T09:07:39.373Z,88.50
2019-01-03T09:10:25.730Z,88.70
2019-01-03T09:13:07.966Z,88.40
2019-01-03T09:15:47.339Z,88.70
2019-01-03T09:18:26.549Z,87.40
2019-01-03T09:21:13.211Z,88.50
2019-01-03T09:23:56.356Z,88.60
2019-01-03T09:26:44.590Z,89.20
2019-01-03T09:29:20.745Z,88.80
2019-01-03T09:31:53.504Z,88.00
2019-01-03T09:34:29.242Z,87.90
2019-01-03T09:36:59.144Z,86.20
2019-01-03T09:39:34.917Z,86.60
2019-01-03T09:42:07.915Z,86.60
2019-01-03T09:44:45.168Z,85.30
2019-01-03T09:47:13.707Z,83.30
2019-01-03T09:49:42.086Z,80.30
2019-01-03T09:52:10.415Z,78.10
2019-01-03T09:54:38.759Z,76.20
2019-01-03T09:57:07.254Z,74.00
2019-01-03T09:59:35.530Z,71.90
2019-01-03T10:02:03.857Z,71.30
2019-01-03T10:04:32.359Z,68.90
2019-01-03T10:07:00.740Z,68.90
2019-01-03T10:09:29.008Z,67.30
2019-01-03T10:11:57.464Z,67.50
2019-01-03T10:14:25.747Z,66.40
2019-01-03T10:16:54.358Z,64.40
2019-01-03T10:19:22.628Z,63.90
2019-01-03T10:21:51.124Z,64.00
2019-01-03T10:24:19.406Z,63.10
2019-01-03T10:26:47.707Z,62.80
2019-01-03T10:29:16.146Z,63.10
2019-01-03T10:31:44.617Z,65.00
2019-01-03T10:34:13.053Z,66.00
2019-01-03T10:36:41.359Z,65.40
2019-01-03T10:39:09.742Z,67.70
2019-01-03T10:41:42.459Z,68.10
2019-01-03T10:44:39.037Z,68.10
2019-01-03T10:47:07.319Z,67.60
2019-01-03T10:49:35.690Z,65.70
2019-01-03T10:52:03.944Z,65.90
2019-01-03T10:54:32.264Z,65.90
2019-01-03T10:57:00.556Z,63.70
2019-01-03T10:59:29.201Z,64.50
2019-01-03T11:01:57.618Z,62.70
2019-01-03T11:04:25.990Z,61.20
2019-01-03T11:06:54.279Z,61.00
2019-01-03T11:09:22.562Z,59.90
2019-01-03T11:11:51.010Z,59.50
2019-01-03T11:14:19.595Z,61.00
2019-01-03T11:16:47.935Z,60.80
2019-01-03T11:19:16.479Z,59.30
2019-01-03T11:21:44.892Z,58.50
2019-01-03T11:24:13.361Z,59.50
2019-01-03T11:26:41.831Z,58.90
2019-01-03T11:29:10.235Z,60.00
2019-01-03T11:31:38.807Z,60.20
2019-01-03T11:34:07.163Z,59.70
2019-01-03T11:36:35.764Z,62.40
2019-01-03T11:39:05.591Z,62.80
2019-01-03T11:41:33.886Z,64.00
2019-01-03T11:44:02.316Z,64.70
2019-01-03T11:46:30.668Z,64.90
2019-01-03T11:48:58.941Z,66.00
2019-01-03T11:51:27.320Z,67.00
2019-01-03T11:53:55.759Z,67.30
2019-01-03T11:56:24.129Z,67.90
2019-01-03T11:58:52.432Z,68.50
2019-01-03T12:01:20.819Z,68.30
2019-01-03T12:03:49.088Z,68.90
2019-01-03T12:06:17.597Z,68.10
2019-01-03T12:08:45.922Z,67.20
2019-01-03T12:11:14.213Z,66.20
2019-01-03T12:13:43.085Z,65.00
2019-01-03T12:16:11.662Z,66.40
2019-01-03T12:18:40.018Z,66.80
2019-01-03T12:21:08.386Z,66.90
2019-01-03T12:23:36.733Z,69.40
2019-01-03T12:26:05.031Z,69.10
2019-01-03T12:28:33.294Z,67.50
2019-01-03T12:31:01.593Z,66.90
2019-01-03T12:33:29.850Z,66.30
2019-01-03T12:35:58.182Z,67.30
2019-01-03T12:38:26.497Z,67.20
2019-01-03T12:40:54.757Z,66.30
2019-01-03T12:43:23.140Z,66.40
2019-01-03T12:45:51.505Z,64.70
2019-01-03T12:48:20.676Z,66.00
2019-01-03T12:50:49.292Z,62.80
2019-01-03T12:53:17.597Z,63.10
2019-01-03T12:55:46.039Z,63.50
2019-01-03T12:58:14.330Z,64.20
2019-01-03T13:00:42.608Z,66.10
2019-01-03T13:03:11.397Z,66.40
2019-01-03T13:05:39.735Z,64.70
2019-01-03T13:08:08.116Z,64.00
2019-01-03T13:10:36.639Z,64.20
2019-01-03T13:13:05.138Z,64.50
2019-01-03T13:15:33.714Z,66.20
2019-01-03T13:18:02.134Z,66.30
2019-01-03T13:20:30.558Z,68.50
2019-01-03T13:22:58.840Z,69.80
2019-01-03T13:25:27.419Z,68.60
2019-01-03T13:27:55.813Z,67.80
2019-01-03T13:30:31.744Z,68.00
2019-01-03T13:33:00.047Z,68.80
2019-01-03T13:35:28.405Z,68.20
2019-01-03T13:37:57.030Z,66.50
2019-01-03T13:40:25.443Z,67.00
2019-01-03T13:42:53.787Z,66.20
2019-01-03T13:45:22.356Z,65.20
2019-01-03T13:47:50.814Z,65.60
2019-01-03T13:50:19.430Z,66.10
2019-01-03T13:52:47.693Z,66.00
2019-01-03T13:55:16.258Z,65.50
2019-01-03T13:57:44.674Z,64.70
2019-01-03T14:00:13.050Z,65.90
2019-01-03T14:02:41.333Z,65.90
2019-01-03T14:05:09.766Z,65.00
2019-01-03T14:07:38.222Z,64.80
2019-01-03T14:10:07.762Z,64.50
2019-01-03T14:12:36.136Z,63.70
2019-01-03T14:15:05.909Z,63.50
2019-01-03T14:17:34.470Z,63.20
2019-01-03T14:20:02.770Z,61.20
2019-01-03T14:22:31.188Z,61.50
2019-01-03T14:24:59.495Z,63.10
2019-01-03T14:27:27.809Z,62.40
2019-01-03T14:29:56.083Z,61.40
2019-01-03T14:32:24.385Z,60.10
2019-01-03T14:34:52.670Z,59.70
2019-01-03T14:37:21.145Z,58.40
2019-01-03T14:39:49.546Z,60.50
2019-01-03T14:42:17.906Z,60.60
2019-01-03T14:44:46.240Z,60.00
2019-01-03T14:47:14.558Z,61.40
2019-01-03T14:49:42.825Z,59.30
2019-01-03T14:52:11.204Z,60.90
2019-01-03T14:54:39.550Z,61.40
2019-01-03T14:57:07.926Z,61.90
2019-01-03T14:59:36.382Z,63.20
2019-01-03T15:02:04.892Z,63.10
2019-01-03T15:04:33.155Z,64.20
2019-01-03T15:07:01.655Z,63.60
2019-01-03T15:09:30.055Z,61.00
2019-01-03T15:11:58.326Z,61.40
2019-01-03T15:14:26.934Z,63.30
2019-01-03T15:16:55.338Z,66.20
2019-01-03T15:19:23.615Z,65.00
2019-01-03T15:21:52.069Z,65.90
2019-01-03T15:24:20.355Z,64.40
2019-01-03T15:26:48.693Z,65.20
2019-01-03T15:29:16.988Z,62.50
2019-01-03T15:31:45.269Z,63.30
2019-01-03T15:34:13.875Z,64.10
2019-01-03T15:36:42.291Z,65.60
2019-01-03T15:39:10.625Z,66.40
2019-01-03T15:41:39.037Z,66.70
2019-01-03T15:44:11.358Z,68.40
2019-01-03T15:46:39.791Z,71.20
2019-01-03T15:49:08.157Z,73.20
2019-01-03T15:51:36.875Z,74.90
2019-01-03T15:54:05.415Z,75.30
2019-01-03T15:56:34.043Z,75.40
2019-01-03T15:59:02.352Z,75.30
2019-01-03T16:01:30.770Z,74.70
2019-01-03T16:03:59.276Z,75.20
2019-01-03T16:06:27.537Z,76.00
2019-01-03T16:08:55.850Z,77.30
2019-01-03T16:11:24.442Z,77.90
2019-01-03T16:13:52.814Z,77.50
2019-01-03T16:16:21.191Z,76.60
2019-01-03T16:18:49.549Z,75.80
2019-01-03T16:21:18.019Z,75.40
2019-01-03T16:23:46.288Z,75.90
2019-01-03T16:26:14.734Z,76.80
2019-01-03T16:28:43.057Z,77.80
2019-01-03T16:31:11.371Z,79.10
2019-01-03T16:33:39.710Z,77.50
2019-01-03T16:36:08.049Z,75.30
2019-01-03T16:38:36.336Z,74.20
2019-01-03T16:41:04.809Z,74.10
2019-01-03T16:43:33.253Z,73.20
2019-01-03T16:46:01.565Z,73.20
2019-01-03T16:48:30.009Z,73.60
2019-01-03T16:50:59.907Z,75.00
2019-01-03T16:53:28.347Z,74.80
2019-01-03T16:55:58.174Z,75.20
2019-01-03T16:58:26.522Z,76.40
2019-01-03T17:00:55.054Z,76.00
2019-01-03T17:03:23.654Z,76.10
2019-01-03T17:05:52.111Z,75.70
2019-01-03T17:08:20.721Z,74.70
2019-01-03T17:10:49.282Z,75.20
2019-01-03T17:13:17.599Z,74.70
2019-01-03T17:15:46.160Z,74.40
2019-01-03T17:18:14.482Z,74.40
2019-01-03T17:20:42.752Z,73.80
2019-01-03T17:23:11.322Z,74.00
2019-01-03T17:25:39.666Z,73.30
2019-01-03T17:28:08.088Z,70.50
2019-01-03T17:30:36.373Z,67.10
2019-01-03T17:33:04.957Z,67.40
2019-01-03T17:35:33.283Z,67.70
2019-01-03T17:38:01.648Z,71.50
2019-01-03T17:40:29.918Z,72.30
2019-01-03T17:42:58.312Z,70.20
2019-01-03T17:45:26.750Z,68.40
2019-01-03T17:47:55.455Z,67.10
2019-01-03T17:50:23.768Z,69.50
2019-01-03T17:52:52.091Z,71.70
2019-01-03T17:55:20.368Z,72.00
2019-01-03T17:57:48.949Z,71.50
2019-01-03T18:00:19.242Z,70.40
2019-01-03T18:02:47.836Z,69.20
2019-01-03T18:05:16.325Z,69.50
2019-01-03T18:07:44.714Z,68.90
2019-01-03T18:10:14.241Z,70.60
2019-01-03T18:12:42.643Z,69.60
2019-01-03T18:15:10.968Z,67.00
2019-01-03T18:17:39.315Z,65.80
2019-01-03T18:20:10.913Z,67.60
2019-01-03T18:22:39.356Z,66.00
2019-01-03T18:25:07.657Z,68.50
2019-01-03T18:27:36.132Z,69.70
2019-01-03T18:30:07.387Z,70.90
2019-01-03T18:32:35.877Z,73.10
2019-01-03T18:35:04.303Z,73.90
2019-01-03T18:37:32.609Z,77.00
2019-01-03T18:40:01.055Z,77.30
2019-01-03T18:42:29.421Z,78.30
2019-01-03T18:44:57.807Z,78.90
2019-01-03T18:47:26.201Z,81.30
2019-01-03T18:49:54.466Z,83.30
2019-01-03T18:52:23.790Z,83.40
2019-01-03T18:54:52.055Z,85.00
2019-01-03T18:57:20.380Z,85.00
2019-01-03T18:59:49.120Z,83.90
2019-01-03T19:02:17.576Z,82.80
2019-01-03T19:04:45.858Z,83.70
2019-01-03T19:07:14.179Z,83.50
2019-01-03T19:09:42.630Z,85.00
2019-01-03T19:12:11.212Z,85.10
2019-01-03T19:14:39.508Z,85.40
2019-01-03T19:17:07.845Z,86.30
2019-01-03T19:19:36.382Z,86.70
2019-01-03T19:22:05.462Z,86.30
2019-01-03T19:24:33.919Z,86.50
2019-01-03T19:27:02.234Z,86.90
2019-01-03T19:29:30.688Z,87.00
2019-01-03T19:31:59.442Z,87.00
2019-01-03T19:34:27.883Z,87.30
2019-01-03T19:36:56.489Z,87.50
2019-01-03T19:39:25.020Z,87.50
2019-01-03T19:41:53.560Z,86.80
2019-01-03T19:44:25.304Z,86.90
2019-01-03T19:46:54.101Z,85.80
2019-01-03T19:49:22.592Z,85.10
2019-01-03T19:51:50.934Z,86.90
2019-01-03T19:54:19.275Z,87.20
2019-01-03T19:56:47.620Z,88.00
2019-01-03T19:59:15.997Z,87.60
2019-01-03T20:01:44.355Z,87.00
2019-01-03T20:04:12.830Z,86.40
2019-01-03T20:06:41.160Z,86.20
2019-01-03T20:09:10.309Z,87.00
2019-01-03T20:11:38.707Z,84.40
2019-01-03T20:14:07.231Z,85.10
2019-01-03T20:16:35.784Z,84.50
2019-01-03T20:19:04.169Z,85.70
2019-01-03T20:21:32.606Z,86.30
2019-01-03T20:24:01.070Z,85.80
2019-01-03T20:26:30.197Z,86.40
2019-01-03T20:28:58.546Z,86.30
2019-01-03T20:31:27.226Z,84.90
2019-01-03T20:33:55.494Z,85.00
2019-01-03T20:36:23.816Z,86.70
2019-01-03T20:38:52.214Z,86.30
2019-01-03T20:41:20.588Z,85.60
2019-01-03T20:43:48.915Z,86.20
2019-01-03T20:46:17.213Z,85.30
2019-01-03T20:48:45.509Z,86.10
2019-01-03T20:51:18.106Z,85.20
2019-01-03T20:53:46.988Z,85.00
2019-01-03T20:56:15.419Z,86.00
2019-01-03T20:58:43.709Z,86.60
2019-01-03T21:01:12.210Z,86.80
2019-01-03T21:03:40.748Z,86.50
2019-01-03T21:06:09.180Z,87.10
2019-01-03T21:08:37.473Z,88.60
2019-01-03T21:11:06.323Z,88.80
2019-01-03T21:13:34.634Z,88.50
2019-01-03T21:16:03.007Z,88.80
2019-01-03T21:18:31.335Z,88.80
2019-01-03T21:20:59.864Z,89.80
2019-01-03T21:23:28.174Z,89.20
2019-01-03T21:25:56.495Z,90.00
2019-01-03T21:28:24.840Z,90.00
2019-01-03T21:30:53.218Z,90.10
2019-01-03T21:33:21.709Z,90.40
2019-01-03T21:35:50.147Z,90.40
2019-01-03T21:38:18.601Z,90.70
2019-01-03T21:40:46.854Z,89.70
2019-01-03T21:43:15.173Z,90.00
2019-01-03T21:45:43.653Z,90.40
2019-01-03T21:48:12.161Z,90.90
2019-01-03T21:50:40.488Z,90.70
2019-01-03T21:53:08.823Z,90.80
2019-01-03T21:55:37.208Z,90.40
2019-01-03T21:58:06.567Z,90.40
2019-01-03T22:00:34.974Z,90.60
2019-01-03T22:03:03.394Z,90.30
2019-01-03T22:05:32.009Z,90.40
2019-01-03T22:08:00.526Z,90.50
2019-01-03T22:10:29.706Z,91.00
2019-01-03T22:12:58.902Z,91.00
2019-01-03T22:15:27.450Z,90.90
2019-01-03T22:17:56.195Z,91.50
2019-01-03T22:20:24.794Z,91.10
2019-01-03T22:22:53.095Z,90.70
2019-01-03T22:25:21.685Z,90.90
2019-01-03T22:27:50.037Z,90.50
2019-01-03T22:30:18.960Z,90.70
2019-01-03T22:32:47.516Z,90.80
2019-01-03T22:35:15.881Z,90.20
2019-01-03T22:37:44.176Z,90.20
2019-01-03T22:40:12.635Z,89.10
2019-01-03T22:42:41.261Z,89.10
2019-01-03T22:45:09.929Z,89.40
2019-01-03T22:47:38.607Z,90.00
2019-01-03T22:50:09.525Z,89.90
2019-01-03T22:52:37.812Z,90.00
2019-01-03T22:55:07.190Z,90.00
2019-01-03T22:57:36.681Z,89.70
2019-01-03T23:00:27.355Z,89.20
2019-01-03T23:02:55.708Z,89.60
2019-01-03T23:05:24.365Z,89.60
2019-01-03T23:07:52.787Z,89.50
2019-01-03T23:10:21.170Z,90.30
2019-01-03T23:12:49.518Z,90.00
2019-01-03T23:15:18.009Z,89.00
2019-01-03T23:17:46.644Z,88.70
2019-01-03T23:20:16.851Z,89.70
2019-01-03T23:22:45.295Z,89.90
2019-01-03T23:25:13.914Z,90.40
2019-01-03T23:27:42.297Z,90.20
2019-01-03T23:30:10.577Z,90.10
2019-01-03T23:32:39.043Z,90.10
2019-01-03T23:35:07.391Z,90.10
2019-01-03T23:37:35.862Z,89.80
2019-01-03T23:40:05.309Z,89.50
2019-01-03T23:42:33.702Z,89.50
2019-01-03T23:45:19.001Z,89.10
2019-01-03T23:47:48.118Z,90.40
2019-01-03T23:50:22.466Z,89.80
2019-01-03T23:52:50.787Z,89.30
2019-01-03T23:55:19.168Z,88.50
2019-01-03T23:57:48.379Z,88.30
